createdAt,value
2022-08-05T00:02:07.711Z,2.88
2022-08-05T00:04:37.501Z,2.10
2022-08-05T00:07:27.247Z,5.95
2022-08-05T00:09:59.050Z,3.70
2022-08-05T00:12:28.443Z,6.45
2022-08-05T00:14:57.776Z,2.92
2022-08-05T00:17:27.161Z,3.33
2022-08-05T00:20:02.527Z,3.00
2022-08-05T00:22:32.655Z,1.90
2022-08-05T00:25:01.972Z,2.20
2022-08-05T00:27:36.082Z,2.38
2022-08-05T00:30:11.506Z,2.33
2022-08-05T00:32:41.074Z,2.63
2022-08-05T00:35:10.794Z,2.67
2022-08-05T00:37:52.553Z,2.55
2022-08-05T00:40:27.768Z,1.65
2022-08-05T00:43:07.674Z,3.33
2022-08-05T00:45:39.027Z,1.90
2022-08-05T00:48:15.671Z,2.47
2022-08-05T00:50:47.331Z,1.70
2022-08-05T00:53:45.037Z,4.78
2022-08-05T00:56:08.665Z,4.65
2022-08-05T00:58:39.069Z,5.68
2022-08-05T01:03:42.474Z,1.63
2022-08-05T01:06:15.369Z,1.50
2022-08-05T01:08:47.423Z,1.35
2022-08-05T01:11:33.314Z,1.52
2022-08-05T01:14:28.752Z,1.95
2022-08-05T01:17:10.800Z,1.20
2022-08-05T01:20:02.276Z,1.40
2022-08-05T01:22:55.807Z,1.40
2022-08-05T01:25:39.903Z,1.60
2022-08-05T01:28:58.013Z,1.73
2022-08-05T01:31:56.741Z,1.55
2022-08-05T01:34:37.139Z,1.40
2022-08-05T01:37:10.607Z,1.20
2022-08-05T01:39:59.117Z,2.08
2022-08-05T01:42:31.106Z,1.70
2022-08-05T01:45:03.363Z,1.60
2022-08-05T01:47:39.527Z,1.60
2022-08-05T01:50:19.143Z,1.33
2022-08-05T01:53:03.900Z,1.50
2022-08-05T01:55:36.160Z,1.58
2022-08-05T01:58:15.745Z,1.98
2022-08-05T02:00:51.915Z,1.73
2022-08-05T02:03:45.753Z,1.67
2022-08-05T02:06:37.755Z,6.10
2022-08-05T02:09:05.771Z,1.30
2022-08-05T02:12:01.136Z,1.20
2022-08-05T02:14:39.196Z,1.10
2022-08-05T02:18:32.446Z,1.40
2022-08-05T02:20:32.225Z,1.50
2022-08-05T02:23:13.577Z,2.33
2022-08-05T02:25:49.830Z,1.23
2022-08-05T02:28:29.218Z,1.10
2022-08-05T02:31:25.692Z,3.58
2022-08-05T02:34:01.282Z,4.65
2022-08-05T02:36:31.894Z,1.30
2022-08-05T02:39:04.466Z,1.52
2022-08-05T02:41:58.183Z,3.38
2022-08-05T02:44:29.715Z,2.25
2022-08-05T02:47:00.902Z,3.47
2022-08-05T02:49:40.656Z,9.95
2022-08-05T02:52:29.652Z,8.40
2022-08-05T02:55:05.506Z,1.30
2022-08-05T02:58:10.465Z,1.10
2022-08-05T03:00:26.969Z,1.02
2022-08-05T03:02:58.921Z,1.20
2022-08-05T03:06:53.577Z,0.90
2022-08-05T03:08:19.550Z,1.00
2022-08-05T03:11:01.295Z,0.82
2022-08-05T03:13:52.130Z,1.10
2022-08-05T03:19:12.549Z,1.70
2022-08-05T03:21:48.668Z,1.70
2022-08-05T03:24:29.945Z,2.47
2022-08-05T03:27:01.560Z,1.20
2022-08-05T03:29:45.652Z,2.00
2022-08-05T03:32:21.027Z,1.38
2022-08-05T03:35:00.991Z,1.30
2022-08-05T03:37:46.438Z,1.95
2022-08-05T03:40:31.491Z,1.20
2022-08-05T03:43:58.454Z,1.52
2022-08-05T03:45:57.271Z,0.90
2022-08-05T03:48:30.730Z,1.10
2022-08-05T03:52:38.007Z,1.73
2022-08-05T03:55:52.519Z,1.10
2022-08-05T03:57:42.301Z,1.27
2022-08-05T04:00:17.355Z,3.53
2022-08-05T04:02:51.985Z,3.50
2022-08-05T04:05:33.870Z,3.13
2022-08-05T04:08:29.670Z,2.80
2022-08-05T04:11:03.046Z,2.05
2022-08-05T04:13:51.008Z,0.90
2022-08-05T04:16:25.223Z,1.20
2022-08-05T04:19:00.096Z,1.00
2022-08-05T04:22:09.577Z,0.77
2022-08-05T04:24:22.734Z,0.90
2022-08-05T04:26:52.656Z,1.00
2022-08-05T04:29:21.767Z,0.80
2022-08-05T04:31:52.231Z,0.82
2022-08-05T04:34:33.962Z,1.30
2022-08-05T04:37:04.856Z,1.30
2022-08-05T04:39:35.486Z,1.50
2022-08-05T04:42:05.053Z,0.88
2022-08-05T04:44:34.242Z,1.00
2022-08-05T04:47:08.784Z,1.40
2022-08-05T04:50:03.087Z,1.00
2022-08-05T04:52:33.468Z,1.50
2022-08-05T04:55:14.362Z,1.75
2022-08-05T04:57:51.473Z,1.42
2022-08-05T05:00:23.241Z,1.30
2022-08-05T05:03:01.462Z,1.25
2022-08-05T05:05:33.450Z,1.30
2022-08-05T05:08:26.623Z,1.05
2022-08-05T05:10:59.659Z,2.17
2022-08-05T05:13:36.837Z,1.48
2022-08-05T05:16:12.653Z,0.90
2022-08-05T05:19:02.575Z,1.10
2022-08-05T05:21:33.969Z,1.00
2022-08-05T05:24:08.947Z,0.93
2022-08-05T05:26:38.378Z,0.90
2022-08-05T05:29:14.264Z,2.08
2022-08-05T05:31:46.449Z,0.73
2022-08-05T05:34:18.090Z,1.20
2022-08-05T05:36:53.034Z,0.90
2022-08-05T05:39:22.263Z,0.88
2022-08-05T05:41:54.282Z,0.93
2022-08-05T05:44:37.607Z,0.90
2022-08-05T05:47:23.535Z,1.70
2022-08-05T05:50:01.838Z,1.08
2022-08-05T05:55:13.608Z,0.90
2022-08-05T05:57:52.821Z,0.85
2022-08-05T06:00:31.343Z,1.02
2022-08-05T06:03:02.384Z,0.90
2022-08-05T06:05:31.987Z,1.10
2022-08-05T06:08:03.850Z,0.90
2022-08-05T06:10:37.370Z,1.35
2022-08-05T06:13:13.399Z,1.38
2022-08-05T06:16:28.396Z,2.40
2022-08-05T06:18:31.843Z,0.98
2022-08-05T06:21:07.880Z,1.10
2022-08-05T06:23:46.136Z,0.63
2022-08-05T06:26:21.648Z,0.88
2022-08-05T06:28:54.355Z,1.10
2022-08-05T06:31:30.413Z,0.63
2022-08-05T06:34:07.550Z,0.98
2022-08-05T06:36:58.037Z,0.80
2022-08-05T06:39:28.194Z,0.77
2022-08-05T06:42:04.538Z,0.90
2022-08-05T06:44:33.893Z,0.90
2022-08-05T06:47:03.059Z,0.73
2022-08-05T06:50:01.759Z,1.13
2022-08-05T06:52:37.067Z,5.03
2022-08-05T06:55:08.435Z,1.08
2022-08-05T06:57:57.327Z,1.25
2022-08-05T07:00:27.175Z,0.90
2022-08-05T07:02:59.102Z,1.00
2022-08-05T07:05:37.864Z,0.93
2022-08-05T07:08:11.202Z,0.95
2022-08-05T07:10:52.563Z,1.40
2022-08-05T07:13:59.189Z,1.15
2022-08-05T07:17:59.467Z,1.23
2022-08-05T07:22:30.052Z,1.13
2022-08-05T07:25:23.908Z,2.00
2022-08-05T07:27:57.490Z,1.27
2022-08-05T07:30:34.442Z,1.10
2022-08-05T07:33:16.698Z,1.50
2022-08-05T07:36:03.389Z,1.98
2022-08-05T07:38:43.358Z,0.90
2022-08-05T07:42:14.526Z,2.00
2022-08-05T07:44:19.315Z,0.95
2022-08-05T07:46:50.654Z,0.90
2022-08-05T07:49:21.606Z,1.60
2022-08-05T07:51:54.581Z,1.70
2022-08-05T07:54:33.381Z,2.03
2022-08-05T07:57:22.667Z,1.35
2022-08-05T07:59:57.031Z,1.30
2022-08-05T08:02:30.786Z,1.40
2022-08-05T08:05:01.366Z,1.60
2022-08-05T08:07:39.470Z,1.40
2022-08-05T08:10:20.726Z,1.67
2022-08-05T08:12:50.866Z,1.80
2022-08-05T08:16:33.572Z,1.60
2022-08-05T08:18:09.957Z,1.30
2022-08-05T08:21:02.044Z,1.40
2022-08-05T08:24:01.279Z,1.50
2022-08-05T08:26:26.728Z,1.70
2022-08-05T08:29:45.507Z,1.50
2022-08-05T08:31:51.920Z,1.58
2022-08-05T08:34:30.790Z,1.10
2022-08-05T08:37:05.240Z,1.45
2022-08-05T08:39:37.627Z,0.90
2022-08-05T08:42:33.877Z,1.00
2022-08-05T08:45:18.646Z,1.60
2022-08-05T08:48:12.752Z,1.75
2022-08-05T08:51:03.438Z,2.63
2022-08-05T08:53:45.075Z,3.60
2022-08-05T08:56:14.996Z,4.10
2022-08-05T08:58:48.838Z,1.58
2022-08-05T09:01:20.271Z,1.55
2022-08-05T09:03:58.336Z,1.20
2022-08-05T09:06:30.403Z,1.35
2022-08-05T09:09:04.356Z,1.60
2022-08-05T09:14:58.532Z,1.77
2022-08-05T09:17:16.098Z,3.17
2022-08-05T09:20:05.045Z,1.50
2022-08-05T09:23:18.511Z,1.70
2022-08-05T09:26:00.129Z,1.30
2022-08-05T09:28:36.732Z,0.90
2022-08-05T09:34:02.647Z,1.13
2022-08-05T09:36:55.974Z,1.17
2022-08-05T09:39:41.485Z,1.45
2022-08-05T09:42:24.158Z,1.50
2022-08-05T09:45:17.264Z,1.20
2022-08-05T09:47:56.218Z,1.60
2022-08-05T09:50:44.685Z,1.27
2022-08-05T09:53:22.801Z,1.48
2022-08-05T09:56:04.504Z,1.20
2022-08-05T09:58:34.613Z,1.48
2022-08-05T10:01:15.072Z,1.08
2022-08-05T10:04:01.121Z,1.40
2022-08-05T10:09:27.853Z,1.10
2022-08-05T10:12:31.119Z,1.20
2022-08-05T10:15:20.419Z,2.33
2022-08-05T10:18:10.222Z,1.35
2022-08-05T10:20:48.868Z,1.30
2022-08-05T10:23:50.861Z,1.30
2022-08-05T10:26:16.106Z,1.60
2022-08-05T10:28:47.270Z,1.30
2022-08-05T10:32:54.721Z,1.30
2022-08-05T10:34:10.084Z,1.27
2022-08-05T10:36:42.083Z,1.60
2022-08-05T10:39:24.804Z,1.63
2022-08-05T10:42:12.880Z,1.92
2022-08-05T10:44:47.138Z,1.30
2022-08-05T10:47:27.099Z,1.10
2022-08-05T10:50:32.563Z,1.85
2022-08-05T10:53:05.805Z,1.38
2022-08-05T10:56:03.520Z,1.60
2022-08-05T10:58:47.769Z,1.60
2022-08-05T11:01:13.209Z,1.50
2022-08-05T11:04:10.366Z,1.60
2022-08-05T11:07:02.174Z,1.85
2022-08-05T11:09:46.429Z,2.03
2022-08-05T11:12:50.432Z,1.73
2022-08-05T11:16:01.194Z,2.28
2022-08-05T11:18:32.626Z,2.10
2022-08-05T11:21:11.353Z,1.83
2022-08-05T11:24:05.660Z,1.88
2022-08-05T11:26:43.223Z,2.22
2022-08-05T11:29:37.290Z,2.35
2022-08-05T11:32:30.568Z,2.90
2022-08-05T11:34:59.885Z,2.60
2022-08-05T11:38:28.776Z,2.92
2022-08-05T11:41:35.638Z,2.10
2022-08-05T11:44:07.193Z,2.33
2022-08-05T11:47:09.656Z,3.33
2022-08-05T11:49:38.579Z,4.10
2022-08-05T11:52:12.447Z,3.70
2022-08-05T11:54:43.620Z,3.90
2022-08-05T11:57:30.644Z,5.05
2022-08-05T12:00:31.641Z,7.68
2022-08-05T12:03:28.548Z,7.95
2022-08-05T12:06:06.046Z,7.97
2022-08-05T12:08:56.146Z,4.97
2022-08-05T12:11:28.236Z,2.45
2022-08-05T12:14:10.547Z,1.77
2022-08-05T12:16:45.475Z,2.80
2022-08-05T12:20:26.604Z,2.10
2022-08-05T12:22:09.463Z,2.20
2022-08-05T12:24:49.646Z,2.10
2022-08-05T12:27:32.784Z,2.00
2022-08-05T12:30:06.242Z,3.22
2022-08-05T12:32:45.587Z,2.35
2022-08-05T12:35:20.874Z,2.05
2022-08-05T12:37:53.233Z,2.22
2022-08-05T12:40:28.746Z,1.73
2022-08-05T12:42:59.140Z,1.70
2022-08-05T12:45:36.971Z,2.00
2022-08-05T12:48:32.783Z,2.38
2022-08-05T12:52:10.495Z,2.30
2022-08-05T12:54:16.515Z,4.72
2022-08-05T12:56:50.998Z,5.13
2022-08-05T12:59:27.593Z,4.75
2022-08-05T13:02:15.036Z,3.80
2022-08-05T13:04:54.471Z,3.70
2022-08-05T13:07:57.205Z,5.63
2022-08-05T13:10:19.810Z,5.38
2022-08-05T13:12:57.483Z,4.95
2022-08-05T13:15:41.294Z,4.53
2022-08-05T13:18:21.273Z,3.97
2022-08-05T13:20:53.441Z,4.63
2022-08-05T13:23:23.194Z,4.53
2022-08-05T13:25:59.409Z,6.47
2022-08-05T13:28:32.225Z,3.75
2022-08-05T13:31:10.900Z,2.70
2022-08-05T13:34:22.600Z,2.83
2022-08-05T13:36:34.177Z,2.97
2022-08-05T13:39:08.471Z,3.17
2022-08-05T13:41:54.590Z,2.97
2022-08-05T13:44:25.239Z,4.85
2022-08-05T13:47:02.408Z,4.80
2022-08-05T13:49:38.513Z,3.67
2022-08-05T13:52:19.724Z,3.47
2022-08-05T13:54:59.353Z,3.30
2022-08-05T13:57:50.792Z,3.47
2022-08-05T14:00:19.503Z,4.90
2022-08-05T14:03:01.087Z,3.95
2022-08-05T14:06:24.564Z,4.25
2022-08-05T14:08:20.936Z,4.75
2022-08-05T14:11:03.065Z,4.57
2022-08-05T14:13:48.292Z,3.20
2022-08-05T14:16:19.275Z,3.55
2022-08-05T14:18:48.522Z,2.95
2022-08-05T14:22:10.446Z,3.58
2022-08-05T14:24:10.929Z,6.80
2022-08-05T14:26:51.446Z,6.05
2022-08-05T14:29:31.384Z,6.10
2022-08-05T14:32:12.394Z,6.07
2022-08-05T14:34:45.276Z,6.18
2022-08-05T14:37:15.209Z,6.00
2022-08-05T14:39:49.301Z,7.85
2022-08-05T14:42:21.731Z,6.90
2022-08-05T14:44:51.794Z,7.43
2022-08-05T14:47:58.353Z,6.97
2022-08-05T14:50:18.133Z,6.53
2022-08-05T14:52:58.520Z,3.20
2022-08-05T14:55:39.242Z,3.30
2022-08-05T14:58:13.964Z,3.35
2022-08-05T15:00:58.002Z,3.90
2022-08-05T15:03:34.088Z,3.67
2022-08-05T15:06:14.806Z,3.72
2022-08-05T15:08:58.230Z,3.42
2022-08-05T15:11:51.771Z,3.00
2022-08-05T15:14:33.445Z,3.00
2022-08-05T15:17:44.238Z,3.53
2022-08-05T15:19:55.732Z,3.25
2022-08-05T15:22:26.988Z,3.40
2022-08-05T15:25:00.227Z,3.58
2022-08-05T15:27:32.123Z,3.30
2022-08-05T15:30:06.298Z,3.85
2022-08-05T15:32:35.611Z,3.88
2022-08-05T15:35:10.590Z,3.35
2022-08-05T15:38:32.260Z,3.97
2022-08-05T15:40:59.881Z,3.35
2022-08-05T15:43:21.624Z,3.40
2022-08-05T15:46:00.213Z,3.38
2022-08-05T15:48:31.122Z,3.30
2022-08-05T15:51:03.445Z,3.88
2022-08-05T15:53:38.491Z,3.22
2022-08-05T15:56:23.512Z,2.58
2022-08-05T15:58:53.600Z,3.22
2022-08-05T16:01:29.611Z,4.40
2022-08-05T16:04:10.568Z,3.47
2022-08-05T16:06:41.245Z,3.13
2022-08-05T16:09:10.658Z,3.63
2022-08-05T16:11:43.302Z,3.50
2022-08-05T16:14:17.201Z,3.53
2022-08-05T16:16:47.997Z,3.50
2022-08-05T16:19:25.867Z,3.13
2022-08-05T16:22:10.731Z,2.70
2022-08-05T16:24:51.122Z,3.72
2022-08-05T16:27:32.343Z,3.67
2022-08-05T16:30:23.313Z,2.70
2022-08-05T16:32:56.037Z,3.28
2022-08-05T16:35:27.724Z,3.28
2022-08-05T16:38:15.745Z,3.10
2022-08-05T16:40:51.761Z,4.15
2022-08-05T16:43:26.339Z,3.63
2022-08-05T16:46:05.136Z,4.03
2022-08-05T16:48:39.225Z,3.38
2022-08-05T16:51:10.632Z,4.28
2022-08-05T16:54:04.770Z,2.78
2022-08-05T16:56:34.685Z,2.95
2022-08-05T16:59:08.688Z,2.67
2022-08-05T17:01:53.257Z,2.88
2022-08-05T17:04:26.563Z,2.53
2022-08-05T17:07:01.871Z,2.72
2022-08-05T17:09:38.891Z,2.97
2022-08-05T17:12:22.637Z,2.80
2022-08-05T17:15:15.595Z,2.90
2022-08-05T17:17:54.789Z,2.28
2022-08-05T17:20:25.164Z,2.85
2022-08-05T17:22:56.185Z,2.30
2022-08-05T17:25:33.835Z,2.60
2022-08-05T17:28:09.936Z,3.00
2022-08-05T17:30:42.391Z,2.53
2022-08-05T17:33:20.156Z,2.42
2022-08-05T17:36:07.855Z,2.65
2022-08-05T17:38:39.847Z,2.30
2022-08-05T17:41:11.584Z,1.95
2022-08-05T17:43:59.165Z,3.95
2022-08-05T17:46:28.301Z,2.70
2022-08-05T17:48:58.015Z,3.00
2022-08-05T17:51:27.211Z,2.50
2022-08-05T17:53:56.310Z,2.97
2022-08-05T17:56:28.351Z,2.83
2022-08-05T17:58:57.766Z,2.65
2022-08-05T18:01:27.163Z,2.53
2022-08-05T18:04:03.983Z,2.72
2022-08-05T18:06:34.077Z,2.53
2022-08-05T18:09:04.025Z,2.58
2022-08-05T18:11:33.951Z,2.00
2022-08-05T18:14:13.462Z,2.28
2022-08-05T18:16:51.248Z,2.58
2022-08-05T18:19:23.030Z,2.60
2022-08-05T18:22:07.569Z,2.42
2022-08-05T18:24:39.857Z,2.42
2022-08-05T18:27:12.845Z,2.35
2022-08-05T18:29:54.177Z,2.40
2022-08-05T18:32:28.342Z,2.60
2022-08-05T18:34:59.817Z,2.50
2022-08-05T18:37:34.209Z,2.17
2022-08-05T18:41:50.474Z,1.92
2022-08-05T18:43:00.634Z,2.17
2022-08-05T18:45:41.874Z,2.55
2022-08-05T18:48:30.209Z,2.92
2022-08-05T18:52:06.090Z,2.42
2022-08-05T18:54:08.950Z,2.28
2022-08-05T18:56:38.166Z,2.50
2022-08-05T18:59:43.466Z,2.70
2022-08-05T19:01:57.206Z,2.85
2022-08-05T19:04:28.497Z,2.58
2022-08-05T19:06:57.604Z,2.35
2022-08-05T19:09:26.910Z,2.90
2022-08-05T19:12:00.182Z,2.60
2022-08-05T19:15:00.010Z,3.15
2022-08-05T19:17:20.784Z,2.60
2022-08-05T19:19:51.186Z,2.90
2022-08-05T19:22:22.742Z,2.15
2022-08-05T19:25:02.543Z,2.45
2022-08-05T19:27:32.086Z,2.70
2022-08-05T19:30:03.077Z,2.75
2022-08-05T19:32:33.122Z,3.22
2022-08-05T19:35:05.988Z,2.53
2022-08-05T19:38:04.228Z,2.80
2022-08-05T19:40:25.676Z,2.78
2022-08-05T19:43:04.913Z,3.00
2022-08-05T19:45:36.979Z,2.40
2022-08-05T19:48:07.251Z,3.15
2022-08-05T19:50:44.619Z,2.78
2022-08-05T19:53:14.004Z,2.47
2022-08-05T19:56:14.843Z,2.42
2022-08-05T19:58:53.440Z,2.70
2022-08-05T20:01:28.543Z,2.75
2022-08-05T20:03:58.514Z,2.40
2022-08-05T20:06:28.721Z,2.78
2022-08-05T20:09:02.026Z,3.08
2022-08-05T20:11:48.160Z,3.60
2022-08-05T20:14:26.856Z,3.00
2022-08-05T20:16:59.571Z,2.75
2022-08-05T20:19:36.274Z,3.00
2022-08-05T20:22:10.654Z,3.40
2022-08-05T20:24:40.947Z,2.63
2022-08-05T20:27:11.671Z,2.75
2022-08-05T20:29:41.096Z,3.28
2022-08-05T20:32:10.629Z,2.70
2022-08-05T20:34:42.093Z,3.95
2022-08-05T20:37:24.200Z,3.17
2022-08-05T20:40:01.135Z,3.47
2022-08-05T20:42:30.457Z,3.72
2022-08-05T20:45:01.106Z,3.30
2022-08-05T20:47:32.725Z,3.47
2022-08-05T20:50:03.313Z,3.70
2022-08-05T20:52:36.808Z,3.30
2022-08-05T20:55:54.821Z,3.22
2022-08-05T20:58:00.512Z,3.17
2022-08-05T21:00:41.248Z,3.05
2022-08-05T21:03:20.681Z,3.20
2022-08-05T21:05:55.629Z,3.35
2022-08-05T21:08:41.636Z,3.60
2022-08-05T21:11:51.572Z,3.50
2022-08-05T21:14:03.589Z,3.45
2022-08-05T21:16:35.106Z,3.40
2022-08-05T21:19:04.825Z,3.15
2022-08-05T21:21:39.253Z,3.53
2022-08-05T21:24:15.482Z,3.00
2022-08-05T21:26:56.199Z,3.42
2022-08-05T21:29:31.741Z,3.27
2022-08-05T21:32:03.518Z,3.30
2022-08-05T21:34:35.677Z,3.22
2022-08-05T21:37:06.044Z,3.47
2022-08-05T21:39:40.761Z,3.40
2022-08-05T21:42:31.159Z,3.50
2022-08-05T21:45:00.004Z,3.47
2022-08-05T21:47:55.109Z,3.28
2022-08-05T21:50:19.063Z,3.40
2022-08-05T21:52:51.298Z,3.67
2022-08-05T21:55:42.678Z,3.67
2022-08-05T21:58:10.460Z,3.55
2022-08-05T22:00:40.970Z,3.63
2022-08-05T22:03:20.605Z,3.70
2022-08-05T22:06:09.449Z,3.30
2022-08-05T22:08:42.497Z,3.83
2022-08-05T22:11:15.720Z,3.38
2022-08-05T22:14:05.777Z,3.25
2022-08-05T22:16:51.102Z,3.25
2022-08-05T22:20:01.003Z,3.13
2022-08-05T22:22:11.528Z,3.35
2022-08-05T22:24:59.450Z,4.15
2022-08-05T22:28:09.495Z,3.80
2022-08-05T22:30:36.020Z,3.80
2022-08-05T22:33:15.691Z,4.00
2022-08-05T22:35:48.676Z,4.05
2022-08-05T22:38:19.802Z,4.05
2022-08-05T22:40:55.053Z,3.75
2022-08-05T22:43:36.208Z,4.10
2022-08-05T22:46:13.295Z,4.00
2022-08-05T22:48:43.880Z,27.70
2022-08-05T22:51:16.121Z,29.33
2022-08-05T22:53:55.071Z,30.42
2022-08-05T22:56:29.809Z,5.32
2022-08-05T22:59:45.130Z,4.28
2022-08-05T23:02:06.075Z,4.38
2022-08-05T23:04:37.538Z,4.05
2022-08-05T23:07:08.159Z,4.63
2022-08-05T23:09:58.400Z,5.00
2022-08-05T23:12:29.266Z,6.10
2022-08-05T23:15:04.031Z,9.20
2022-08-05T23:18:01.636Z,4.07
2022-08-05T23:20:28.416Z,4.07
2022-08-05T23:22:58.930Z,4.05
2022-08-05T23:25:54.520Z,3.88
2022-08-05T23:28:18.136Z,4.35
2022-08-05T23:30:53.163Z,4.30
2022-08-05T23:33:26.396Z,3.90
2022-08-05T23:36:14.146Z,3.58
2022-08-05T23:38:44.259Z,4.10
2022-08-05T23:41:14.183Z,3.63
2022-08-05T23:44:05.474Z,3.83
2022-08-05T23:46:33.104Z,3.63
2022-08-05T23:49:15.999Z,4.93
2022-08-05T23:52:05.572Z,8.63
2022-08-05T23:54:38.694Z,4.35
2022-08-05T23:57:09.425Z,3.72
